createdAt,value
2022-08-31T00:01:05.144Z,15.73
2022-08-31T00:03:51.918Z,15.72
2022-08-31T00:06:20.880Z,15.73
2022-08-31T00:08:49.406Z,15.72
2022-08-31T00:11:27.244Z,15.71
2022-08-31T00:13:59.065Z,15.69
2022-08-31T00:16:32.047Z,15.69
2022-08-31T00:19:01.344Z,15.66
2022-08-31T00:21:29.864Z,15.64
2022-08-31T00:24:00.640Z,15.61
2022-08-31T00:26:29.173Z,15.58
2022-08-31T00:28:59.892Z,15.56
2022-08-31T00:31:28.960Z,15.54
2022-08-31T00:33:58.200Z,15.51
2022-08-31T00:36:27.388Z,15.48
2022-08-31T00:38:56.586Z,15.46
2022-08-31T00:41:27.842Z,15.42
2022-08-31T00:43:58.528Z,15.38
2022-08-31T00:46:29.810Z,15.34
2022-08-31T00:49:04.478Z,15.34
2022-08-31T00:51:39.405Z,15.30
2022-08-31T00:54:10.876Z,15.27
2022-08-31T00:56:40.948Z,15.25
2022-08-31T00:59:09.935Z,15.22
2022-08-31T01:01:38.729Z,15.20
2022-08-31T01:04:07.750Z,15.18
2022-08-31T01:06:37.057Z,15.15
2022-08-31T01:09:07.438Z,15.14
2022-08-31T01:11:38.786Z,15.12
2022-08-31T01:14:08.775Z,15.09
2022-08-31T01:16:42.671Z,15.06
2022-08-31T01:19:22.467Z,15.04
2022-08-31T01:22:00.019Z,15.03
2022-08-31T01:24:30.684Z,15.00
2022-08-31T01:27:04.230Z,14.96
2022-08-31T01:29:33.016Z,14.93
2022-08-31T01:32:03.801Z,14.88
2022-08-31T01:34:32.598Z,14.86
2022-08-31T01:37:01.734Z,14.83
2022-08-31T01:39:30.380Z,14.79
2022-08-31T01:41:59.390Z,14.76
2022-08-31T01:44:29.145Z,14.74
2022-08-31T01:46:59.107Z,14.69
2022-08-31T01:49:29.358Z,14.66
2022-08-31T01:51:59.295Z,14.63
2022-08-31T01:54:28.030Z,14.60
2022-08-31T01:57:00.128Z,14.57
2022-08-31T01:59:41.746Z,14.54
2022-08-31T02:02:30.319Z,14.48
2022-08-31T02:05:00.468Z,14.47
2022-08-31T02:07:29.432Z,14.44
2022-08-31T02:09:58.556Z,14.41
2022-08-31T02:12:27.447Z,14.40
2022-08-31T02:14:56.018Z,14.40
2022-08-31T02:17:24.682Z,14.36
2022-08-31T02:19:53.255Z,14.35
2022-08-31T02:22:21.899Z,14.32
2022-08-31T02:24:50.780Z,14.31
2022-08-31T02:27:19.357Z,14.28
2022-08-31T02:29:47.882Z,14.25
2022-08-31T02:32:20.667Z,14.21
2022-08-31T02:34:49.917Z,14.18
2022-08-31T02:37:20.944Z,14.15
2022-08-31T02:39:50.364Z,14.13
2022-08-31T02:42:19.686Z,14.11
2022-08-31T02:44:48.314Z,14.10
2022-08-31T02:47:16.850Z,14.09
2022-08-31T02:49:57.526Z,14.07
2022-08-31T02:52:26.155Z,14.02
2022-08-31T02:54:55.898Z,14.00
2022-08-31T02:57:24.685Z,13.97
2022-08-31T02:59:53.475Z,13.96
2022-08-31T03:02:23.455Z,13.94
2022-08-31T03:05:02.433Z,13.93
2022-08-31T03:07:33.468Z,13.92
2022-08-31T03:10:02.014Z,13.91
2022-08-31T03:12:30.463Z,13.90
2022-08-31T03:15:01.927Z,13.89
2022-08-31T03:17:30.487Z,13.89
2022-08-31T03:20:02.245Z,13.89
2022-08-31T03:22:31.963Z,13.90
2022-08-31T03:25:01.596Z,13.91
2022-08-31T03:27:31.111Z,13.90
2022-08-31T03:30:00.705Z,13.91
2022-08-31T03:32:33.235Z,13.90
2022-08-31T03:35:03.695Z,13.90
2022-08-31T03:37:33.339Z,13.93
2022-08-31T03:40:04.795Z,13.95
2022-08-31T03:42:34.403Z,13.96
2022-08-31T03:45:04.631Z,13.98
2022-08-31T03:47:35.344Z,13.97
2022-08-31T03:50:05.619Z,13.98
2022-08-31T03:52:43.892Z,13.97
2022-08-31T03:55:16.751Z,13.97
2022-08-31T03:57:45.423Z,13.98
2022-08-31T04:00:15.788Z,13.99
2022-08-31T04:02:44.600Z,14.00
2022-08-31T04:05:41.646Z,14.00
2022-08-31T04:08:25.844Z,14.02
2022-08-31T04:11:16.235Z,14.05
2022-08-31T04:14:04.244Z,14.07
2022-08-31T04:16:40.785Z,14.09
2022-08-31T04:19:11.209Z,14.10
2022-08-31T04:21:47.209Z,14.10
2022-08-31T04:24:15.900Z,14.12
2022-08-31T04:26:44.970Z,14.14
2022-08-31T04:29:13.927Z,14.16
2022-08-31T04:31:43.477Z,14.18
2022-08-31T04:34:13.535Z,14.21
2022-08-31T04:36:44.802Z,14.23
2022-08-31T04:39:14.409Z,14.26
2022-08-31T04:41:43.504Z,14.29
2022-08-31T04:44:17.741Z,14.31
2022-08-31T04:46:49.426Z,14.33
2022-08-31T04:49:18.834Z,14.36
2022-08-31T04:51:47.729Z,14.39
2022-08-31T04:54:16.392Z,14.40
2022-08-31T04:56:46.192Z,14.44
2022-08-31T04:59:25.618Z,14.48
2022-08-31T05:02:09.802Z,14.49
2022-08-31T05:04:45.266Z,14.51
2022-08-31T05:07:14.600Z,14.55
2022-08-31T05:09:43.236Z,14.60
2022-08-31T05:12:11.771Z,14.64
2022-08-31T05:14:40.254Z,14.68
2022-08-31T05:17:18.050Z,14.73
2022-08-31T05:19:46.761Z,14.78
2022-08-31T05:22:16.426Z,14.81
2022-08-31T05:24:47.691Z,14.86
2022-08-31T05:27:16.602Z,14.91
2022-08-31T05:29:45.574Z,14.95
2022-08-31T05:32:39.964Z,15.00
2022-08-31T05:35:12.195Z,15.05
2022-08-31T05:37:42.747Z,15.12
2022-08-31T05:40:13.003Z,15.16
2022-08-31T05:42:42.205Z,15.21
2022-08-31T05:45:12.099Z,15.26
2022-08-31T05:47:41.301Z,15.35
2022-08-31T05:50:11.126Z,15.43
2022-08-31T05:52:41.831Z,15.50
2022-08-31T05:55:11.825Z,15.61
2022-08-31T05:57:40.535Z,15.67
2022-08-31T06:00:11.854Z,15.74
2022-08-31T06:02:45.617Z,15.79
2022-08-31T06:05:15.702Z,15.82
2022-08-31T06:07:46.510Z,15.88
2022-08-31T06:10:20.679Z,15.97
2022-08-31T06:12:50.285Z,16.09
2022-08-31T06:15:20.527Z,16.19
2022-08-31T06:17:49.171Z,16.30
2022-08-31T06:20:18.239Z,16.42
2022-08-31T06:22:48.936Z,16.53
2022-08-31T06:25:30.064Z,16.65
2022-08-31T06:34:23.209Z,17.09
2022-08-31T06:37:10.867Z,17.10
2022-08-31T06:40:13.930Z,17.09
2022-08-31T06:43:07.261Z,17.12
2022-08-31T06:45:58.688Z,17.17
2022-08-31T06:48:33.105Z,17.23
2022-08-31T06:51:02.551Z,17.28
2022-08-31T06:53:31.298Z,17.32
2022-08-31T06:56:20.688Z,17.37
2022-08-31T06:59:09.942Z,17.42
2022-08-31T07:01:55.016Z,17.49
2022-08-31T07:04:36.730Z,17.58
2022-08-31T07:07:08.477Z,17.65
2022-08-31T07:09:39.067Z,17.70
2022-08-31T07:12:08.414Z,17.71
2022-08-31T07:14:37.356Z,17.72
2022-08-31T07:17:08.599Z,17.66
2022-08-31T07:19:37.738Z,17.69
2022-08-31T07:22:15.570Z,17.66
2022-08-31T07:24:47.146Z,17.70
2022-08-31T07:27:17.851Z,17.77
2022-08-31T07:29:59.717Z,17.82
2022-08-31T07:32:31.840Z,17.84
2022-08-31T07:35:01.439Z,17.95
2022-08-31T07:37:51.536Z,18.06
2022-08-31T07:40:43.741Z,18.07
2022-08-31T07:43:15.587Z,18.05
2022-08-31T07:45:46.130Z,18.11
2022-08-31T07:48:20.044Z,18.28
2022-08-31T07:51:28.285Z,18.52
2022-08-31T07:54:20.172Z,18.59
2022-08-31T07:57:03.981Z,18.70
2022-08-31T07:59:34.545Z,18.87
2022-08-31T08:02:03.556Z,19.01
2022-08-31T08:04:34.592Z,19.03
2022-08-31T08:07:22.823Z,19.10
2022-08-31T08:10:00.419Z,19.11
2022-08-31T08:12:56.770Z,19.09
2022-08-31T08:15:46.009Z,19.06
2022-08-31T08:18:31.183Z,19.05
2022-08-31T08:21:03.441Z,19.12
2022-08-31T08:23:32.254Z,19.21
2022-08-31T08:26:31.212Z,19.26
2022-08-31T08:29:16.947Z,19.31
2022-08-31T08:31:52.560Z,19.49
2022-08-31T08:34:27.138Z,19.84
2022-08-31T08:37:02.254Z,19.88
2022-08-31T08:39:31.346Z,20.20
2022-08-31T08:42:14.679Z,20.20
2022-08-31T08:44:44.547Z,20.21
2022-08-31T08:47:18.442Z,21.14
2022-08-31T08:49:55.550Z,22.14
2022-08-31T08:52:28.769Z,22.90
2022-08-31T08:55:06.366Z,23.57
2022-08-31T08:57:39.107Z,23.91
2022-08-31T09:00:12.062Z,23.80
2022-08-31T09:02:49.878Z,23.99
2022-08-31T09:05:38.297Z,24.29
2022-08-31T09:08:43.642Z,24.54
2022-08-31T09:11:18.273Z,23.91
2022-08-31T09:13:58.558Z,23.36
2022-08-31T09:16:40.483Z,23.05
2022-08-31T09:19:14.971Z,23.66
2022-08-31T09:21:47.520Z,23.65
2022-08-31T09:24:20.209Z,23.20
2022-08-31T09:27:17.369Z,23.23
2022-08-31T09:29:47.867Z,23.88
2022-08-31T09:32:24.455Z,24.29
2022-08-31T09:35:01.071Z,24.82
2022-08-31T09:37:32.976Z,25.39
2022-08-31T09:40:16.962Z,25.84
2022-08-31T09:43:03.653Z,26.33
2022-08-31T09:45:39.961Z,26.58
2022-08-31T09:48:11.294Z,26.72
2022-08-31T09:50:44.485Z,26.80
2022-08-31T09:53:32.171Z,26.00
2022-08-31T09:56:16.541Z,26.01
2022-08-31T09:58:51.251Z,26.51
2022-08-31T10:01:25.106Z,26.92
2022-08-31T10:04:11.722Z,27.20
2022-08-31T10:06:51.076Z,27.43
2022-08-31T10:09:28.190Z,27.44
2022-08-31T10:12:01.226Z,27.34
2022-08-31T10:14:35.556Z,27.26
2022-08-31T10:17:12.582Z,27.24
2022-08-31T10:19:52.791Z,27.17
2022-08-31T10:22:30.149Z,27.15
2022-08-31T10:25:12.510Z,27.25
2022-08-31T10:27:48.168Z,27.51
2022-08-31T10:30:24.468Z,27.52
2022-08-31T10:32:59.689Z,27.29
2022-08-31T10:35:37.134Z,27.07
2022-08-31T10:38:20.921Z,26.84
2022-08-31T10:40:54.300Z,27.02
2022-08-31T10:43:28.713Z,27.27
2022-08-31T10:46:01.750Z,27.51
2022-08-31T10:48:31.436Z,27.71
2022-08-31T10:51:14.205Z,27.62
2022-08-31T10:53:52.401Z,27.24
2022-08-31T10:56:39.339Z,27.10
2022-08-31T10:59:17.552Z,27.10
2022-08-31T11:01:55.893Z,27.28
2022-08-31T11:04:48.459Z,27.35
2022-08-31T11:07:40.211Z,27.41
2022-08-31T11:10:20.471Z,27.22
2022-08-31T11:12:57.658Z,27.11
2022-08-31T11:15:43.652Z,26.77
2022-08-31T11:18:51.349Z,26.75
2022-08-31T11:22:02.427Z,26.89
2022-08-31T11:24:48.624Z,27.17
2022-08-31T11:27:24.656Z,27.39
2022-08-31T11:30:00.246Z,27.57
2022-08-31T11:32:36.007Z,27.79
2022-08-31T11:35:09.808Z,27.31
2022-08-31T11:37:55.142Z,26.92
2022-08-31T11:41:11.540Z,26.36
2022-08-31T11:43:51.477Z,25.62
2022-08-31T11:46:42.876Z,25.09
2022-08-31T11:49:45.697Z,24.61
2022-08-31T11:52:42.902Z,24.67
2022-08-31T11:55:20.550Z,24.81
2022-08-31T11:58:25.375Z,24.81
2022-08-31T12:01:02.619Z,24.57
2022-08-31T12:03:53.306Z,24.76
2022-08-31T12:07:06.847Z,24.80
2022-08-31T12:10:11.908Z,24.60
2022-08-31T12:13:18.042Z,24.35
2022-08-31T12:16:05.075Z,24.48
2022-08-31T12:18:49.216Z,24.58
2022-08-31T12:21:41.001Z,24.65
2022-08-31T12:24:23.319Z,24.65
2022-08-31T12:27:09.718Z,24.62
2022-08-31T12:29:41.481Z,24.74
2022-08-31T12:32:31.100Z,24.90
2022-08-31T12:35:10.834Z,24.91
2022-08-31T12:37:40.297Z,24.72
2022-08-31T12:40:17.773Z,24.76
2022-08-31T12:42:57.133Z,24.82
2022-08-31T12:45:49.022Z,24.74
2022-08-31T12:48:32.805Z,24.74
2022-08-31T12:51:14.244Z,24.88
2022-08-31T12:54:01.210Z,24.85
2022-08-31T12:56:39.015Z,24.69
2022-08-31T12:59:23.377Z,24.54
2022-08-31T13:01:52.423Z,24.56
2022-08-31T13:04:22.121Z,24.46
2022-08-31T13:06:50.712Z,24.11
2022-08-31T13:09:28.323Z,24.03
2022-08-31T13:11:59.812Z,24.01
2022-08-31T13:14:30.346Z,23.94
2022-08-31T13:17:05.213Z,24.01
2022-08-31T13:19:35.789Z,24.12
2022-08-31T13:22:07.081Z,24.08
2022-08-31T13:24:40.513Z,24.01
2022-08-31T13:27:19.341Z,24.08
2022-08-31T13:29:49.526Z,24.17
2022-08-31T13:32:32.273Z,24.08
2022-08-31T13:35:05.188Z,24.04
2022-08-31T13:37:38.799Z,24.04
2022-08-31T13:40:09.832Z,23.69
2022-08-31T13:42:42.235Z,23.55
2022-08-31T13:45:26.107Z,23.57
2022-08-31T13:48:00.927Z,23.62
2022-08-31T13:50:36.073Z,23.66
2022-08-31T13:55:55.149Z,23.86
2022-08-31T13:58:28.927Z,23.97
2022-08-31T14:01:23.680Z,23.90
2022-08-31T14:03:56.754Z,23.79
2022-08-31T14:06:28.091Z,23.71
2022-08-31T14:09:02.927Z,23.57
2022-08-31T14:11:35.364Z,23.57
2022-08-31T14:14:07.739Z,23.57
2022-08-31T14:16:39.312Z,23.57
2022-08-31T14:19:12.563Z,23.54
2022-08-31T14:21:43.048Z,23.36
2022-08-31T14:24:12.234Z,23.13
2022-08-31T14:26:43.595Z,22.97
2022-08-31T14:29:15.515Z,22.83
2022-08-31T14:31:48.757Z,22.68
2022-08-31T14:34:24.718Z,22.51
2022-08-31T14:37:01.870Z,22.32
2022-08-31T14:39:33.699Z,22.23
2022-08-31T14:42:06.993Z,22.11
2022-08-31T14:44:39.100Z,21.95
2022-08-31T14:47:09.420Z,21.84
2022-08-31T14:49:40.638Z,21.76
2022-08-31T14:52:12.457Z,21.68
2022-08-31T14:54:42.544Z,21.62
2022-08-31T14:57:13.889Z,21.52
2022-08-31T14:59:46.433Z,21.45
2022-08-31T15:02:21.509Z,21.36
2022-08-31T15:04:51.688Z,21.28
2022-08-31T15:07:21.107Z,21.20
2022-08-31T15:09:50.422Z,21.16
2022-08-31T15:12:18.987Z,21.08
2022-08-31T15:14:47.529Z,21.05
2022-08-31T15:17:19.602Z,21.01
2022-08-31T15:19:54.652Z,20.95
2022-08-31T15:22:25.568Z,20.93
2022-08-31T15:24:55.253Z,20.91
2022-08-31T15:27:28.187Z,20.90
2022-08-31T15:30:04.169Z,20.83
2022-08-31T15:32:32.950Z,20.79
2022-08-31T15:35:01.429Z,20.73
2022-08-31T15:37:32.330Z,20.68
2022-08-31T15:40:04.059Z,20.62
2022-08-31T15:42:38.998Z,20.50
2022-08-31T15:45:09.856Z,20.43
2022-08-31T15:47:59.117Z,20.34
2022-08-31T15:50:31.685Z,20.27
2022-08-31T15:53:09.323Z,20.20
2022-08-31T15:55:40.025Z,20.14
2022-08-31T15:58:09.596Z,20.12
2022-08-31T16:00:41.106Z,20.10
2022-08-31T16:03:10.450Z,20.05
2022-08-31T16:05:39.675Z,20.01
2022-08-31T16:08:11.533Z,19.97
2022-08-31T16:10:44.114Z,19.89
2022-08-31T16:13:15.163Z,19.82
2022-08-31T16:15:50.569Z,19.72
2022-08-31T16:18:21.369Z,19.62
2022-08-31T16:20:51.191Z,19.54
2022-08-31T16:23:20.865Z,19.45
2022-08-31T16:25:49.723Z,19.40
2022-08-31T16:28:20.229Z,19.34
2022-08-31T16:30:51.365Z,19.26
2022-08-31T16:33:20.654Z,19.17
2022-08-31T16:35:50.190Z,19.10
2022-08-31T16:38:20.148Z,19.01
2022-08-31T16:40:49.004Z,18.96
2022-08-31T16:43:17.567Z,18.89
2022-08-31T16:45:46.155Z,18.84
2022-08-31T16:48:33.432Z,18.78
2022-08-31T16:51:02.550Z,18.70
2022-08-31T16:53:31.634Z,18.63
2022-08-31T16:56:03.140Z,18.57
2022-08-31T16:58:51.098Z,18.51
2022-08-31T17:01:23.094Z,18.46
2022-08-31T17:03:55.258Z,18.43
2022-08-31T17:06:24.823Z,18.38
2022-08-31T17:08:55.203Z,18.35
2022-08-31T17:11:26.388Z,18.32
2022-08-31T17:14:00.619Z,18.28
2022-08-31T17:16:32.590Z,18.27
2022-08-31T17:19:03.769Z,18.25
2022-08-31T17:21:32.921Z,18.20
2022-08-31T17:24:04.464Z,18.18
2022-08-31T17:26:34.159Z,18.16
2022-08-31T17:29:05.236Z,18.13
2022-08-31T17:31:41.616Z,18.11
2022-08-31T17:34:14.143Z,18.06
2022-08-31T17:36:45.438Z,18.04
2022-08-31T17:39:16.307Z,18.01
2022-08-31T17:41:48.365Z,17.98
2022-08-31T17:44:19.003Z,17.97
2022-08-31T17:46:51.728Z,17.94
2022-08-31T17:49:22.592Z,17.88
2022-08-31T17:51:52.986Z,17.85
2022-08-31T17:54:23.418Z,17.81
2022-08-31T17:56:56.511Z,17.77
2022-08-31T17:59:27.789Z,17.70
2022-08-31T18:01:58.549Z,17.64
2022-08-31T18:04:28.760Z,17.56
2022-08-31T18:07:00.517Z,17.51
2022-08-31T18:09:32.529Z,17.44
2022-08-31T18:12:02.088Z,17.38
2022-08-31T18:14:32.733Z,17.33
2022-08-31T18:17:03.897Z,17.26
2022-08-31T18:19:34.194Z,17.22
2022-08-31T18:22:03.323Z,17.17
2022-08-31T18:24:35.061Z,17.12
2022-08-31T18:27:06.700Z,17.08
2022-08-31T18:29:36.712Z,17.05
2022-08-31T18:32:07.735Z,17.01
2022-08-31T18:34:40.504Z,16.97
2022-08-31T18:37:10.296Z,16.92
2022-08-31T18:39:54.206Z,16.88
2022-08-31T18:42:41.869Z,16.86
2022-08-31T18:45:18.612Z,16.82
2022-08-31T18:48:07.507Z,16.80
2022-08-31T18:50:41.853Z,16.78
2022-08-31T18:53:15.505Z,16.79
2022-08-31T18:55:56.256Z,16.77
2022-08-31T18:58:24.990Z,16.78
2022-08-31T19:00:58.103Z,16.78
2022-08-31T19:03:28.439Z,16.77
2022-08-31T19:05:58.349Z,16.76
2022-08-31T19:08:27.757Z,16.76
2022-08-31T19:10:57.526Z,16.75
2022-08-31T19:13:31.057Z,16.76
2022-08-31T19:16:10.909Z,16.75
2022-08-31T19:18:45.458Z,16.74
2022-08-31T19:21:18.235Z,16.72
2022-08-31T19:23:47.988Z,16.70
2022-08-31T19:26:22.360Z,16.71
2022-08-31T19:28:51.584Z,16.68
2022-08-31T19:31:21.650Z,16.67
2022-08-31T19:33:56.683Z,16.65
2022-08-31T19:36:31.570Z,16.63
2022-08-31T19:39:00.759Z,16.60
2022-08-31T19:41:31.633Z,16.58
2022-08-31T19:44:08.109Z,16.56
2022-08-31T19:46:40.393Z,16.53
2022-08-31T19:49:10.441Z,16.51
2022-08-31T19:51:41.190Z,16.49
2022-08-31T19:54:11.896Z,16.44
2022-08-31T19:56:43.181Z,16.41
2022-08-31T19:59:17.712Z,16.36
2022-08-31T20:01:51.722Z,16.32
2022-08-31T20:04:25.645Z,16.28
2022-08-31T20:06:56.645Z,16.23
2022-08-31T20:09:26.475Z,16.15
2022-08-31T20:11:56.317Z,16.08
2022-08-31T20:14:25.660Z,15.99
2022-08-31T20:16:54.684Z,15.89
2022-08-31T20:19:27.649Z,15.80
2022-08-31T20:22:02.983Z,15.71
2022-08-31T20:24:31.576Z,15.65
2022-08-31T20:27:01.693Z,15.58
2022-08-31T20:29:38.363Z,15.53
2022-08-31T20:32:07.589Z,15.48
2022-08-31T20:34:37.718Z,15.41
2022-08-31T20:37:07.032Z,15.34
2022-08-31T20:39:38.801Z,15.28
2022-08-31T20:42:07.934Z,15.23
2022-08-31T20:44:37.753Z,15.17
2022-08-31T20:47:27.175Z,15.11
2022-08-31T20:49:58.272Z,15.04
2022-08-31T20:52:29.967Z,15.02
2022-08-31T20:55:01.645Z,14.98
2022-08-31T20:57:34.527Z,14.94
2022-08-31T21:00:06.117Z,14.90
2022-08-31T21:02:35.232Z,14.87
2022-08-31T21:05:36.407Z,14.84
2022-08-31T21:07:57.527Z,14.81
2022-08-31T21:10:37.067Z,14.78
2022-08-31T21:13:09.637Z,14.74
2022-08-31T21:15:42.653Z,14.73
2022-08-31T21:18:11.579Z,14.70
2022-08-31T21:20:40.505Z,14.67
2022-08-31T21:23:12.137Z,14.65
2022-08-31T21:25:43.471Z,14.63
2022-08-31T21:28:16.605Z,14.62
2022-08-31T21:30:46.696Z,14.59
2022-08-31T21:33:15.774Z,14.57
2022-08-31T21:35:44.508Z,14.55
2022-08-31T21:38:13.475Z,14.52
2022-08-31T21:40:49.116Z,14.48
2022-08-31T21:43:17.917Z,14.45
2022-08-31T21:45:48.083Z,14.44
2022-08-31T21:48:19.066Z,14.42
2022-08-31T21:50:55.876Z,14.39
2022-08-31T21:53:26.630Z,14.36
2022-08-31T21:55:55.795Z,14.32
2022-08-31T21:58:24.763Z,14.29
2022-08-31T22:00:54.972Z,14.28
2022-08-31T22:03:24.020Z,14.25
2022-08-31T22:05:53.087Z,14.23
2022-08-31T22:08:25.668Z,14.19
2022-08-31T22:10:55.152Z,14.16
2022-08-31T22:13:23.685Z,14.16
2022-08-31T22:15:53.443Z,14.14
2022-08-31T22:21:15.600Z,14.08
2022-08-31T22:23:47.187Z,14.07
2022-08-31T22:26:17.703Z,14.05
2022-08-31T22:28:46.635Z,14.05
2022-08-31T22:31:17.675Z,14.04
2022-08-31T22:33:49.252Z,14.04
2022-08-31T22:36:31.161Z,14.04
2022-08-31T22:39:02.944Z,14.03
2022-08-31T22:41:33.003Z,14.03
2022-08-31T22:44:02.105Z,14.02
2022-08-31T22:46:31.257Z,14.03
2022-08-31T22:49:01.407Z,14.02
2022-08-31T22:51:30.308Z,14.02
2022-08-31T22:53:59.714Z,14.03
2022-08-31T22:56:32.167Z,14.04
2022-08-31T22:59:04.729Z,14.05
2022-08-31T23:01:36.567Z,14.07
2022-08-31T23:04:08.350Z,14.05
2022-08-31T23:06:38.887Z,14.04
2022-08-31T23:09:10.369Z,14.02
2022-08-31T23:11:40.162Z,14.01
2022-08-31T23:14:09.956Z,13.99
2022-08-31T23:16:41.671Z,13.95
2022-08-31T23:19:13.753Z,13.90
2022-08-31T23:21:47.216Z,13.89
2022-08-31T23:24:25.527Z,13.85
2022-08-31T23:27:00.308Z,13.81
2022-08-31T23:29:33.961Z,13.77
2022-08-31T23:32:03.989Z,13.73
2022-08-31T23:34:35.853Z,13.71
2022-08-31T23:37:07.387Z,13.64
2022-08-31T23:39:37.568Z,13.59
2022-08-31T23:42:10.917Z,13.54
2022-08-31T23:44:43.032Z,13.48
2022-08-31T23:47:14.102Z,13.40
2022-08-31T23:49:44.130Z,13.34
2022-08-31T23:52:18.305Z,13.28
2022-08-31T23:54:47.730Z,13.23
2022-08-31T23:57:33.021Z,13.19
